createdAt,value
2018-05-25T00:01:59.199Z,3.37
2018-05-25T00:04:28.927Z,3.43
2018-05-25T00:06:59.438Z,4.10
2018-05-25T00:09:29.169Z,3.13
2018-05-25T00:11:59.687Z,3.63
2018-05-25T00:14:30.784Z,3.50
2018-05-25T00:17:00.525Z,3.50
2018-05-25T00:19:30.317Z,3.67
2018-05-25T00:22:00.053Z,3.70
2018-05-25T00:24:30.533Z,3.70
2018-05-25T00:27:00.285Z,3.53
2018-05-25T00:29:30.041Z,3.50
2018-05-25T00:32:00.180Z,3.57
2018-05-25T00:34:29.903Z,3.70
2018-05-25T00:36:59.711Z,3.07
2018-05-25T00:39:29.428Z,3.40
2018-05-25T00:41:59.185Z,3.37
2018-05-25T00:44:30.031Z,3.83
2018-05-25T00:47:00.605Z,4.00
2018-05-25T00:49:30.405Z,3.67
2018-05-25T00:52:00.148Z,4.00
2018-05-25T00:54:29.856Z,4.53
2018-05-25T00:56:59.611Z,3.77
2018-05-25T00:59:29.363Z,4.10
2018-05-25T01:01:59.644Z,3.80
2018-05-25T01:04:29.368Z,4.30
2018-05-25T01:06:59.099Z,4.07
2018-05-25T01:09:28.849Z,4.50
2018-05-25T01:11:59.380Z,4.23
2018-05-25T01:14:30.237Z,4.47
2018-05-25T01:17:00.031Z,4.40
2018-05-25T01:19:31.021Z,4.67
2018-05-25T01:22:00.778Z,4.37
2018-05-25T01:24:31.430Z,3.50
2018-05-25T01:27:01.176Z,4.50
2018-05-25T01:29:30.904Z,3.70
2018-05-25T01:32:01.365Z,3.93
2018-05-25T01:34:31.895Z,4.07
2018-05-25T01:37:02.401Z,3.63
2018-05-25T01:39:32.177Z,3.77
2018-05-25T01:42:01.942Z,4.10
2018-05-25T01:44:32.451Z,3.90
2018-05-25T01:47:02.810Z,3.93
2018-05-25T01:49:33.748Z,3.90
2018-05-25T01:52:03.512Z,4.20
2018-05-25T01:54:33.262Z,4.30
2018-05-25T01:57:03.866Z,3.40
2018-05-25T01:59:33.728Z,3.80
2018-05-25T02:02:04.144Z,4.10
2018-05-25T02:04:33.877Z,3.97
2018-05-25T02:07:03.960Z,3.63
2018-05-25T02:09:34.483Z,3.57
2018-05-25T02:12:05.012Z,4.23
2018-05-25T02:14:35.743Z,3.87
2018-05-25T02:17:06.285Z,3.83
2018-05-25T02:19:36.604Z,3.93
2018-05-25T02:22:07.072Z,4.20
2018-05-25T02:24:36.964Z,4.13
2018-05-25T02:27:06.680Z,3.70
2018-05-25T02:29:36.442Z,4.03
2018-05-25T02:32:06.169Z,4.77
2018-05-25T02:34:36.640Z,3.80
2018-05-25T02:37:06.752Z,4.67
2018-05-25T02:39:36.485Z,3.80
2018-05-25T02:42:06.225Z,4.30
2018-05-25T02:44:36.724Z,4.40
2018-05-25T02:47:06.460Z,3.93
2018-05-25T02:49:36.610Z,4.23
2018-05-25T02:52:06.356Z,4.13
2018-05-25T02:57:11.381Z,4.97
2018-05-25T02:59:41.115Z,4.70
2018-05-25T03:02:10.862Z,5.20
2018-05-25T03:04:41.361Z,4.97
2018-05-25T03:07:11.101Z,4.57
2018-05-25T03:09:40.866Z,5.40
2018-05-25T03:12:10.826Z,4.93
2018-05-25T03:14:42.424Z,4.30
2018-05-25T03:17:12.721Z,4.67
2018-05-25T03:19:43.224Z,4.93
2018-05-25T03:22:12.972Z,4.60
2018-05-25T03:24:42.717Z,5.63
2018-05-25T03:27:12.437Z,4.70
2018-05-25T03:29:43.136Z,4.83
2018-05-25T03:32:12.891Z,5.17
2018-05-25T03:34:43.891Z,5.07
2018-05-25T03:37:13.616Z,4.87
2018-05-25T03:39:43.312Z,5.20
2018-05-25T03:42:13.029Z,5.67
2018-05-25T03:44:42.741Z,4.90
2018-05-25T03:47:12.646Z,5.40
2018-05-25T03:49:42.399Z,5.03
2018-05-25T03:52:12.122Z,4.53
2018-05-25T03:54:41.863Z,4.90
2018-05-25T03:57:11.681Z,5.30
2018-05-25T03:59:53.220Z,4.77
2018-05-25T04:02:22.956Z,4.77
2018-05-25T04:04:52.854Z,5.20
2018-05-25T04:07:23.380Z,4.80
2018-05-25T04:09:53.136Z,5.40
2018-05-25T04:12:22.850Z,4.63
2018-05-25T04:14:52.624Z,5.20
2018-05-25T04:17:24.521Z,4.70
2018-05-25T04:19:54.237Z,4.80
2018-05-25T04:22:23.977Z,5.07
2018-05-25T04:24:53.687Z,5.33
2018-05-25T04:27:23.513Z,5.80
2018-05-25T04:29:53.275Z,5.60
2018-05-25T04:32:23.036Z,5.30
2018-05-25T04:34:53.276Z,5.77
2018-05-25T04:37:23.752Z,5.17
2018-05-25T04:39:53.488Z,5.37
2018-05-25T04:42:23.265Z,5.77
2018-05-25T04:44:53.008Z,5.00
2018-05-25T04:47:23.383Z,5.30
2018-05-25T04:49:53.159Z,5.77
2018-05-25T04:52:23.960Z,4.70
2018-05-25T04:54:53.711Z,5.30
2018-05-25T04:57:24.241Z,5.53
2018-05-25T04:59:54.753Z,5.77
2018-05-25T05:02:24.518Z,6.10
2018-05-25T05:04:55.469Z,5.80
2018-05-25T05:07:25.232Z,5.27
2018-05-25T05:09:55.761Z,5.40
2018-05-25T05:12:26.301Z,5.87
2018-05-25T05:14:56.973Z,6.90
2018-05-25T05:17:28.077Z,5.80
2018-05-25T05:19:58.951Z,6.30
2018-05-25T05:22:29.206Z,6.03
2018-05-25T05:24:59.812Z,5.80
2018-05-25T05:27:29.654Z,6.67
2018-05-25T05:29:59.404Z,6.10
2018-05-25T05:32:29.146Z,6.63
2018-05-25T05:34:58.932Z,6.83
2018-05-25T05:37:28.659Z,6.33
2018-05-25T05:39:58.879Z,6.57
2018-05-25T05:42:28.612Z,7.30
2018-05-25T05:44:59.131Z,5.90
2018-05-25T05:47:28.857Z,7.13
2018-05-25T05:49:58.628Z,6.70
2018-05-25T05:52:28.924Z,6.40
2018-05-25T05:54:59.524Z,6.87
2018-05-25T05:57:29.242Z,6.70
2018-05-25T05:59:59.854Z,8.27
2018-05-25T06:02:29.577Z,6.93
2018-05-25T06:05:00.176Z,6.37
2018-05-25T06:07:29.941Z,7.73
2018-05-25T06:10:01.195Z,8.17
2018-05-25T06:12:31.763Z,7.60
2018-05-25T06:15:01.508Z,7.70
2018-05-25T06:17:31.287Z,8.10
2018-05-25T06:20:01.152Z,8.57
2018-05-25T06:22:32.408Z,8.67
2018-05-25T06:25:02.885Z,8.53
2018-05-25T06:27:33.362Z,8.30
2018-05-25T06:30:03.160Z,8.83
2018-05-25T06:32:33.673Z,7.53
2018-05-25T06:35:03.418Z,8.00
2018-05-25T06:37:33.132Z,7.90
2018-05-25T06:40:02.848Z,8.47
2018-05-25T06:42:32.580Z,8.23
2018-05-25T06:45:02.297Z,8.13
2018-05-25T06:47:32.316Z,8.37
2018-05-25T06:50:02.253Z,8.47
2018-05-25T06:52:31.996Z,8.53
2018-05-25T06:55:01.742Z,8.40
2018-05-25T06:57:31.553Z,8.30
2018-05-25T07:00:01.319Z,8.70
2018-05-25T07:02:31.860Z,8.60
2018-05-25T07:05:01.597Z,8.43
2018-05-25T07:07:31.348Z,9.13
2018-05-25T07:10:01.109Z,9.23
2018-05-25T07:12:30.829Z,8.50
2018-05-25T07:15:00.543Z,9.37
2018-05-25T07:17:30.293Z,8.57
2018-05-25T07:20:00.042Z,8.67
2018-05-25T07:22:29.784Z,8.93
2018-05-25T07:24:59.504Z,8.77
2018-05-25T07:27:29.233Z,8.80
2018-05-25T07:29:59.031Z,9.47
2018-05-25T07:32:28.878Z,7.83
2018-05-25T07:34:59.366Z,9.50
2018-05-25T07:37:29.124Z,9.33
2018-05-25T07:39:59.596Z,9.90
2018-05-25T07:42:29.324Z,9.30
2018-05-25T07:44:59.602Z,10.20
2018-05-25T07:47:29.372Z,10.47
2018-05-25T07:49:59.876Z,10.10
2018-05-25T07:52:29.711Z,9.10
2018-05-25T07:54:59.442Z,8.93
2018-05-25T07:57:30.418Z,9.80
2018-05-25T08:00:00.153Z,9.93
2018-05-25T08:02:29.909Z,10.37
2018-05-25T08:05:00.418Z,10.07
2018-05-25T08:07:30.964Z,9.87
2018-05-25T08:10:01.486Z,10.17
2018-05-25T08:12:32.032Z,10.30
2018-05-25T08:15:01.770Z,10.67
2018-05-25T08:17:31.516Z,10.97
2018-05-25T08:20:01.944Z,10.67
2018-05-25T08:22:31.696Z,10.73
2018-05-25T08:25:01.426Z,9.90
2018-05-25T08:27:31.173Z,10.60
2018-05-25T08:30:00.940Z,9.30
2018-05-25T08:32:30.662Z,10.00
2018-05-25T08:35:00.763Z,10.83
2018-05-25T08:37:30.506Z,11.27
2018-05-25T08:40:00.243Z,11.50
2018-05-25T08:42:29.999Z,10.23
2018-05-25T08:44:59.712Z,11.20
2018-05-25T08:47:30.256Z,11.83
2018-05-25T08:50:00.347Z,11.53
2018-05-25T08:52:30.115Z,11.07
2018-05-25T08:54:59.886Z,11.13
2018-05-25T08:57:29.624Z,11.23
2018-05-25T08:59:59.376Z,11.60
2018-05-25T09:02:30.124Z,11.80
2018-05-25T09:04:59.868Z,11.37
2018-05-25T09:07:31.422Z,10.57
2018-05-25T09:10:02.006Z,10.90
2018-05-25T09:12:31.785Z,11.60
2018-05-25T09:15:01.520Z,11.90
2018-05-25T09:17:32.739Z,11.20
2018-05-25T09:20:02.482Z,11.20
2018-05-25T09:22:32.227Z,12.10
2018-05-25T09:25:02.026Z,11.63
2018-05-25T09:27:31.749Z,11.80
2018-05-25T09:30:01.496Z,12.10
2018-05-25T09:32:31.253Z,11.37
2018-05-25T09:35:00.992Z,11.60
2018-05-25T09:37:32.005Z,12.27
2018-05-25T09:40:01.754Z,11.50
2018-05-25T09:42:31.498Z,12.37
2018-05-25T09:45:02.007Z,11.60
2018-05-25T09:47:31.752Z,11.13
2018-05-25T09:50:02.185Z,11.33
2018-05-25T09:52:31.946Z,11.63
2018-05-25T09:55:03.054Z,11.30
2018-05-25T09:57:32.837Z,11.53
2018-05-25T10:00:03.324Z,11.70
2018-05-25T10:02:33.046Z,11.40
2018-05-25T10:05:02.822Z,11.90
2018-05-25T10:07:33.204Z,11.53
2018-05-25T10:10:03.719Z,10.90
2018-05-25T10:12:34.369Z,12.07
2018-05-25T10:15:04.872Z,11.20
2018-05-25T10:17:35.408Z,10.83
2018-05-25T10:20:05.165Z,10.80
2018-05-25T10:22:34.961Z,10.97
2018-05-25T10:25:05.081Z,11.30
2018-05-25T10:27:34.819Z,12.33
2018-05-25T10:30:04.529Z,11.47
2018-05-25T10:32:34.259Z,10.83
2018-05-25T10:35:04.058Z,10.77
2018-05-25T10:37:34.118Z,11.37
2018-05-25T10:40:04.634Z,10.10
2018-05-25T10:42:34.396Z,10.53
2018-05-25T10:45:04.128Z,10.90
2018-05-25T10:47:33.927Z,10.67
2018-05-25T10:50:03.657Z,10.40
2018-05-25T10:52:33.425Z,11.03
2018-05-25T10:55:04.077Z,10.13
2018-05-25T10:57:33.834Z,10.07
2018-05-25T11:00:05.097Z,10.53
2018-05-25T11:02:35.624Z,9.23
2018-05-25T11:05:06.373Z,10.17
2018-05-25T11:07:36.184Z,9.90
2018-05-25T11:10:05.982Z,8.70
2018-05-25T11:12:36.344Z,9.23
2018-05-25T11:15:06.138Z,10.43
2018-05-25T11:17:36.778Z,10.07
2018-05-25T11:20:06.607Z,9.80
2018-05-25T11:22:36.358Z,9.93
2018-05-25T11:25:07.647Z,10.20
2018-05-25T11:27:37.408Z,9.37
2018-05-25T11:30:07.625Z,9.70
2018-05-25T11:32:37.460Z,9.33
2018-05-25T11:35:07.935Z,10.30
2018-05-25T11:37:37.674Z,10.10
2018-05-25T11:40:08.177Z,9.80
2018-05-25T11:42:38.506Z,9.17
2018-05-25T11:45:08.299Z,9.30
2018-05-25T11:47:38.056Z,7.40
2018-05-25T11:50:08.774Z,7.37
2018-05-25T11:52:38.544Z,6.57
2018-05-25T11:55:08.284Z,6.40
2018-05-25T11:57:38.028Z,6.50
2018-05-25T12:00:08.522Z,6.13
2018-05-25T12:02:38.305Z,6.70
2018-05-25T12:05:08.044Z,5.90
2018-05-25T12:07:37.812Z,4.93
2018-05-25T12:10:07.537Z,5.30
2018-05-25T12:12:37.290Z,5.43
2018-05-25T12:15:07.126Z,5.03
2018-05-25T12:17:37.675Z,5.90
2018-05-25T12:20:08.501Z,5.90
2018-05-25T12:22:39.040Z,5.77
2018-05-25T12:25:08.819Z,5.90
2018-05-25T12:27:39.372Z,5.90
2018-05-25T12:30:09.873Z,6.17
2018-05-25T12:32:39.618Z,5.30
2018-05-25T12:35:09.354Z,5.60
2018-05-25T12:37:39.124Z,6.40
2018-05-25T12:40:09.745Z,5.97
2018-05-25T12:45:14.535Z,5.57
2018-05-25T12:47:44.278Z,6.43
2018-05-25T12:50:14.065Z,6.50
2018-05-25T12:52:43.842Z,6.87
2018-05-25T12:55:14.321Z,6.23
2018-05-25T12:57:44.036Z,7.30
2018-05-25T13:00:13.843Z,7.53
2018-05-25T13:02:43.618Z,7.30
2018-05-25T13:05:13.341Z,7.03
2018-05-25T13:07:43.089Z,7.50
2018-05-25T13:10:12.862Z,6.90
2018-05-25T13:12:42.595Z,5.97
2018-05-25T13:15:13.153Z,6.43
2018-05-25T13:17:42.902Z,6.03
2018-05-25T13:20:12.617Z,6.13
2018-05-25T13:22:42.401Z,6.50
2018-05-25T13:25:12.883Z,6.00
2018-05-25T13:27:42.623Z,7.83
2018-05-25T13:30:12.496Z,8.07
2018-05-25T13:32:42.319Z,8.30
2018-05-25T13:35:12.102Z,8.33
2018-05-25T13:37:42.651Z,7.73
2018-05-25T13:40:12.380Z,8.13
2018-05-25T13:42:42.908Z,8.23
2018-05-25T13:45:12.650Z,7.30
2018-05-25T13:47:45.295Z,7.57
2018-05-25T13:50:15.021Z,7.73
2018-05-25T13:52:44.817Z,7.90
2018-05-25T13:55:14.549Z,8.33
2018-05-25T13:57:44.319Z,7.43
2018-05-25T14:00:14.057Z,9.03
2018-05-25T14:02:43.885Z,7.87
2018-05-25T14:05:13.791Z,8.80
2018-05-25T14:07:43.524Z,7.50
2018-05-25T14:10:14.257Z,7.93
2018-05-25T14:12:44.808Z,7.47
2018-05-25T14:15:14.556Z,7.50
2018-05-25T14:17:44.315Z,7.40
2018-05-25T14:20:14.962Z,7.17
2018-05-25T14:22:44.785Z,7.37
2018-05-25T14:25:14.597Z,7.07
2018-05-25T14:27:44.329Z,8.20
2018-05-25T14:30:14.963Z,8.00
2018-05-25T14:32:44.884Z,8.13
2018-05-25T14:35:14.738Z,7.70
2018-05-25T14:37:45.274Z,8.60
2018-05-25T14:40:15.016Z,8.33
2018-05-25T14:42:44.753Z,7.90
2018-05-25T14:45:14.466Z,8.17
2018-05-25T14:47:44.221Z,7.33
2018-05-25T14:50:13.939Z,7.20
2018-05-25T14:52:43.766Z,8.00
2018-05-25T14:55:13.600Z,7.70
2018-05-25T14:57:43.350Z,7.10
2018-05-25T15:00:14.005Z,7.00
2018-05-25T15:02:43.864Z,7.10
2018-05-25T15:05:13.609Z,7.23
2018-05-25T15:07:43.450Z,6.83
2018-05-25T15:10:13.302Z,6.80
2018-05-25T15:12:43.030Z,6.80
2018-05-25T15:15:13.580Z,7.73
2018-05-25T15:17:44.144Z,5.90
2018-05-25T15:20:13.921Z,6.60
2018-05-25T15:22:44.434Z,6.30
2018-05-25T15:25:14.228Z,5.90
2018-05-25T15:27:44.780Z,7.03
2018-05-25T15:30:15.298Z,7.07
2018-05-25T15:32:45.913Z,6.33
2018-05-25T15:35:21.016Z,6.93
2018-05-25T15:37:50.763Z,6.27
2018-05-25T15:40:20.528Z,6.07
2018-05-25T15:42:50.241Z,5.93
2018-05-25T15:45:20.250Z,6.27
2018-05-25T15:47:50.012Z,5.90
2018-05-25T15:50:19.759Z,6.53
2018-05-25T15:52:49.484Z,6.17
2018-05-25T15:55:19.204Z,6.60
2018-05-25T15:57:48.913Z,6.57
2018-05-25T16:00:18.787Z,6.50
2018-05-25T16:02:49.292Z,6.20
2018-05-25T16:05:19.015Z,6.47
2018-05-25T16:07:49.555Z,6.17
2018-05-25T16:10:20.060Z,6.17
2018-05-25T16:12:49.825Z,5.60
2018-05-25T16:15:19.689Z,5.07
2018-05-25T16:17:49.504Z,4.93
2018-05-25T16:20:19.780Z,5.10
2018-05-25T16:22:49.569Z,3.80
2018-05-25T16:25:19.314Z,4.00
2018-05-25T16:27:49.052Z,5.10
2018-05-25T16:30:18.740Z,3.80
2018-05-25T16:32:48.473Z,3.77
2018-05-25T16:35:18.211Z,3.90
2018-05-25T16:37:48.700Z,3.70
2018-05-25T16:40:18.410Z,3.40
2018-05-25T16:42:48.158Z,3.57
2018-05-25T16:45:18.681Z,3.77
2018-05-25T16:47:49.300Z,3.80
2018-05-25T16:50:19.867Z,3.90
2018-05-25T16:52:49.688Z,4.20
2018-05-25T16:55:19.457Z,3.60
2018-05-25T16:57:49.977Z,3.33
2018-05-25T17:00:19.713Z,3.70
2018-05-25T17:02:49.456Z,3.10
2018-05-25T17:05:19.164Z,3.57
2018-05-25T17:07:49.186Z,3.63
2018-05-25T17:10:18.921Z,3.50
2018-05-25T17:12:48.683Z,3.23
2018-05-25T17:15:18.435Z,3.20
2018-05-25T17:17:48.182Z,3.33
2018-05-25T17:20:18.700Z,3.13
2018-05-25T17:22:49.192Z,3.00
2018-05-25T17:25:18.950Z,3.20
2018-05-25T17:27:49.458Z,2.90
2018-05-25T17:30:19.204Z,2.77
2018-05-25T17:32:49.852Z,3.17
2018-05-25T17:35:19.616Z,3.60
2018-05-25T17:37:49.389Z,2.77
2018-05-25T17:40:19.098Z,2.97
2018-05-25T17:42:48.823Z,3.17
2018-05-25T17:45:18.545Z,3.40
2018-05-25T17:47:48.302Z,2.60
2018-05-25T17:50:18.036Z,2.80
2018-05-25T17:52:47.752Z,2.67
2018-05-25T17:55:17.525Z,3.00
2018-05-25T17:57:48.043Z,2.33
2018-05-25T18:00:20.032Z,3.03
2018-05-25T18:02:49.744Z,2.80
2018-05-25T18:05:19.539Z,2.77
2018-05-25T18:07:49.310Z,2.50
2018-05-25T18:10:19.084Z,2.37
2018-05-25T18:12:50.027Z,2.70
2018-05-25T18:15:19.834Z,2.50
2018-05-25T18:17:49.575Z,2.70
2018-05-25T18:20:19.324Z,2.67
2018-05-25T18:22:49.840Z,2.10
2018-05-25T18:25:19.901Z,3.10
2018-05-25T18:27:49.657Z,2.70
2018-05-25T18:30:21.655Z,2.30
2018-05-25T18:32:51.401Z,2.23
2018-05-25T18:35:21.129Z,2.87
2018-05-25T18:37:50.867Z,2.40
2018-05-25T18:40:21.371Z,2.20
2018-05-25T18:42:51.183Z,2.17
2018-05-25T18:45:20.912Z,2.20
2018-05-25T18:47:50.666Z,1.60
2018-05-25T18:50:21.544Z,1.90
2018-05-25T18:52:51.341Z,1.97
2018-05-25T18:55:21.197Z,2.20
2018-05-25T18:57:51.793Z,1.80
2018-05-25T19:00:22.315Z,2.00
2018-05-25T19:02:52.050Z,2.30
2018-05-25T19:05:21.792Z,1.80
2018-05-25T19:07:51.565Z,1.70
2018-05-25T19:10:21.351Z,1.67
2018-05-25T19:12:51.686Z,1.80
2018-05-25T19:15:21.406Z,1.43
2018-05-25T19:17:52.212Z,1.70
2018-05-25T19:20:21.933Z,1.60
2018-05-25T19:22:51.676Z,2.07
2018-05-25T19:25:22.212Z,1.83
2018-05-25T19:27:52.812Z,1.60
2018-05-25T19:30:22.885Z,2.07
2018-05-25T19:32:52.636Z,1.77
2018-05-25T19:35:22.341Z,1.73
2018-05-25T19:37:52.106Z,1.70
2018-05-25T19:40:21.833Z,2.00
2018-05-25T19:42:51.565Z,1.73
2018-05-25T19:45:21.318Z,1.83
2018-05-25T19:47:51.482Z,1.80
2018-05-25T19:50:21.194Z,2.07
2018-05-25T19:52:50.964Z,2.00
2018-05-25T19:55:20.912Z,2.07
2018-05-25T19:57:50.648Z,1.73
2018-05-25T20:00:20.486Z,1.50
2018-05-25T20:02:50.228Z,1.83
2018-05-25T20:05:21.336Z,2.13
2018-05-25T20:07:51.890Z,1.47
2018-05-25T20:10:22.418Z,1.50
2018-05-25T20:12:53.877Z,1.50
2018-05-25T20:15:24.363Z,1.80
2018-05-25T20:17:54.585Z,1.60
2018-05-25T20:20:24.349Z,1.60
2018-05-25T20:22:54.259Z,2.10
2018-05-25T20:25:24.008Z,1.60
2018-05-25T20:27:53.719Z,1.50
2018-05-25T20:30:23.453Z,1.37
2018-05-25T20:32:53.221Z,1.80
2018-05-25T20:35:23.185Z,1.30
2018-05-25T20:37:52.951Z,1.67
2018-05-25T20:40:22.655Z,1.43
2018-05-25T20:42:52.418Z,1.20
2018-05-25T20:45:22.167Z,1.27
2018-05-25T20:47:51.916Z,1.70
2018-05-25T20:50:21.641Z,1.60
2018-05-25T20:52:51.490Z,1.67
2018-05-25T20:55:21.236Z,1.73
2018-05-25T20:57:50.968Z,1.60
2018-05-25T21:00:20.685Z,1.20
2018-05-25T21:02:50.422Z,1.60
2018-05-25T21:05:21.380Z,1.80
2018-05-25T21:07:51.164Z,1.33
2018-05-25T21:10:23.003Z,1.20
2018-05-25T21:12:52.783Z,1.60
2018-05-25T21:15:22.524Z,1.67
2018-05-25T21:17:52.315Z,1.20
2018-05-25T21:20:22.026Z,1.47
2018-05-25T21:22:51.744Z,1.50
2018-05-25T21:25:21.465Z,1.57
2018-05-25T21:27:51.214Z,1.70
2018-05-25T21:30:20.944Z,1.60
2018-05-25T21:32:50.717Z,1.20
2018-05-25T21:35:21.199Z,1.57
2018-05-25T21:37:50.981Z,1.17
2018-05-25T21:40:21.349Z,1.50
2018-05-25T21:42:51.120Z,1.63
2018-05-25T21:45:20.881Z,1.57
2018-05-25T21:47:50.627Z,1.90
2018-05-25T21:50:20.399Z,1.40
2018-05-25T21:52:52.533Z,1.60
2018-05-25T21:55:22.283Z,1.73
2018-05-25T21:57:52.000Z,1.80
2018-05-25T22:00:21.943Z,1.87
2018-05-25T22:02:51.684Z,1.90
2018-05-25T22:05:21.446Z,2.30
2018-05-25T22:07:51.934Z,2.20
2018-05-25T22:10:21.692Z,2.53
2018-05-25T22:12:51.480Z,1.90
2018-05-25T22:15:21.823Z,2.30
2018-05-25T22:17:52.469Z,2.63
2018-05-25T22:20:22.210Z,2.07
2018-05-25T22:22:51.965Z,2.33
2018-05-25T22:25:22.541Z,2.60
2018-05-25T22:27:52.332Z,2.60
2018-05-25T22:30:22.132Z,2.43
2018-05-25T22:32:52.758Z,2.27
2018-05-25T22:35:23.281Z,2.90
2018-05-25T22:37:53.806Z,2.80
2018-05-25T22:40:23.712Z,2.57
2018-05-25T22:43:04.497Z,2.50
2018-05-25T22:45:46.873Z,3.13
2018-05-25T22:48:27.584Z,2.80
2018-05-25T22:51:08.457Z,2.30
2018-05-25T22:53:43.071Z,2.80
2018-05-25T22:56:13.959Z,2.80
2018-05-25T22:58:43.723Z,2.93
2018-05-25T23:01:14.252Z,2.63
2018-05-25T23:03:44.757Z,3.00
2018-05-25T23:06:14.544Z,2.60
2018-05-25T23:08:44.263Z,2.90
2018-05-25T23:11:16.880Z,2.90
2018-05-25T23:13:47.373Z,3.37
2018-05-25T23:16:17.131Z,2.67
2018-05-25T23:18:46.928Z,2.80
2018-05-25T23:21:17.440Z,2.83
2018-05-25T23:23:47.179Z,2.73
2018-05-25T23:26:16.938Z,2.87
2018-05-25T23:28:46.674Z,2.47
2018-05-25T23:31:17.225Z,2.70
2018-05-25T23:33:47.734Z,2.90
2018-05-25T23:36:18.218Z,2.87
2018-05-25T23:38:47.993Z,3.03
2018-05-25T23:41:18.837Z,2.60
2018-05-25T23:43:48.594Z,3.07
2018-05-25T23:46:19.073Z,2.97
2018-05-25T23:48:48.832Z,2.90
2018-05-25T23:51:18.620Z,2.93
2018-05-25T23:53:48.371Z,2.97
2018-05-25T23:56:18.114Z,3.13
2018-05-25T23:58:47.860Z,3.60
